createdAt,value
2019-01-05T00:00:28.684Z,101966.45
2019-01-05T00:03:16.089Z,101972.73
2019-01-05T00:06:19.946Z,101973.14
2019-01-05T00:09:07.325Z,101978.06
2019-01-05T00:12:08.469Z,101967.20
2019-01-05T00:15:04.049Z,101964.14
2019-01-05T00:17:59.645Z,101963.36
2019-01-05T00:20:42.017Z,101968.84
2019-01-05T00:23:49.748Z,101964.22
2019-01-05T00:26:40.899Z,101959.14
2019-01-05T00:29:45.272Z,101948.84
2019-01-05T00:33:05.004Z,101953.20
2019-01-05T00:36:15.525Z,101955.59
2019-01-05T00:39:16.963Z,101952.53
2019-01-05T00:42:06.850Z,101961.83
2019-01-05T00:45:14.407Z,101954.22
2019-01-05T00:48:02.301Z,101952.42
2019-01-05T00:51:11.594Z,101961.88
2019-01-05T00:54:01.135Z,101962.62
2019-01-05T00:56:59.009Z,101962.17
2019-01-05T01:00:01.108Z,101964.91
2019-01-05T01:02:49.028Z,101954.48
2019-01-05T01:05:43.847Z,101943.30
2019-01-05T01:08:35.645Z,101933.11
2019-01-05T01:11:34.891Z,101930.73
2019-01-05T01:14:37.075Z,101920.24
2019-01-05T01:17:40.982Z,101910.47
2019-01-05T01:20:28.967Z,101898.41
2019-01-05T01:23:12.828Z,101891.76
2019-01-05T01:26:00.654Z,101902.97
2019-01-05T01:28:48.432Z,101873.14
2019-01-05T01:31:46.571Z,101886.11
2019-01-05T01:34:47.945Z,101878.95
2019-01-05T01:37:46.481Z,101863.24
2019-01-05T01:40:43.535Z,101861.61
2019-01-05T01:43:34.440Z,101867.19
2019-01-05T01:46:32.601Z,101870.45
2019-01-05T01:49:21.541Z,101859.23
2019-01-05T01:52:11.134Z,101838.82
2019-01-05T01:55:01.307Z,101841.29
2019-01-05T01:57:52.049Z,101840.62
2019-01-05T02:00:47.623Z,101834.57
2019-01-05T02:03:54.451Z,101823.16
2019-01-05T02:06:54.100Z,101815.96
2019-01-05T02:09:42.340Z,101811.41
2019-01-05T02:12:31.256Z,101799.55
2019-01-05T02:15:21.404Z,101801.79
2019-01-05T02:18:50.775Z,101795.11
2019-01-05T02:22:18.737Z,101787.63
2019-01-05T02:25:49.442Z,101787.63
2019-01-05T02:29:11.236Z,101789.86
2019-01-05T02:32:48.104Z,101782.00
2019-01-05T02:36:10.799Z,101795.70
2019-01-05T02:39:51.488Z,101779.67
2019-01-05T02:43:41.849Z,101767.81
2019-01-05T02:47:25.224Z,101742.48
2019-01-05T02:50:59.981Z,101766.56
2019-01-05T02:54:33.593Z,101759.30
2019-01-05T02:57:40.097Z,101776.13
2019-01-05T03:01:39.572Z,101759.06
2019-01-05T03:05:31.612Z,101745.91
2019-01-05T03:09:00.810Z,101740.03
2019-01-05T03:12:25.467Z,101762.08
2019-01-05T03:15:58.402Z,101740.92
2019-01-05T03:19:31.091Z,101738.86
2019-01-05T03:23:00.987Z,101732.50
2019-01-05T03:26:40.094Z,101727.41
2019-01-05T03:30:13.851Z,101727.88
2019-01-05T03:33:44.170Z,101718.96
2019-01-05T03:37:27.202Z,101705.36
2019-01-05T03:41:08.922Z,101688.50
2019-01-05T03:45:08.485Z,101718.52
2019-01-05T03:48:52.193Z,101707.09
2019-01-05T03:52:35.005Z,101713.47
2019-01-05T03:56:01.357Z,101713.45
2019-01-05T03:59:43.131Z,101704.56
2019-01-05T04:02:49.608Z,101712.05
2019-01-05T04:06:18.914Z,101688.36
2019-01-05T04:09:57.245Z,101709.13
2019-01-05T04:13:50.808Z,101680.78
2019-01-05T04:17:31.802Z,101687.59
2019-01-05T04:21:26.770Z,101678.30
2019-01-05T04:25:02.661Z,101652.09
2019-01-05T04:28:20.471Z,101659.21
2019-01-05T04:32:08.224Z,101666.77
2019-01-05T04:36:01.287Z,101656.59
2019-01-05T04:39:26.333Z,101651.13
2019-01-05T04:43:15.303Z,101650.10
2019-01-05T04:46:50.728Z,101646.38
2019-01-05T04:50:28.548Z,101648.86
2019-01-05T04:53:54.622Z,101608.08
2019-01-05T04:57:17.333Z,101627.47
2019-01-05T05:00:47.258Z,101629.65
2019-01-05T05:03:57.869Z,101617.70
2019-01-05T05:07:25.717Z,101614.78
2019-01-05T05:10:51.404Z,101633.81
2019-01-05T05:14:14.398Z,101630.83
2019-01-05T05:17:50.389Z,101653.34
2019-01-05T05:21:14.206Z,101631.38
2019-01-05T05:24:48.356Z,101618.61
2019-01-05T05:28:27.999Z,101613.16
2019-01-05T05:31:52.595Z,101634.77
2019-01-05T05:35:38.457Z,101628.88
2019-01-05T05:39:15.023Z,101620.84
2019-01-05T05:42:50.826Z,101622.63
2019-01-05T05:46:28.243Z,101613.78
2019-01-05T05:50:03.654Z,101605.27
2019-01-05T05:53:43.556Z,101615.86
2019-01-05T05:57:13.601Z,101624.77
2019-01-05T06:00:40.128Z,101612.55
2019-01-05T06:04:29.211Z,101609.59
2019-01-05T06:08:06.642Z,101585.89
2019-01-05T06:11:56.888Z,101582.98
2019-01-05T06:15:38.087Z,101594.48
2019-01-05T06:19:05.929Z,101592.39
2019-01-05T06:22:37.963Z,101587.68
2019-01-05T06:25:59.803Z,101610.57
2019-01-05T06:29:33.122Z,101611.84
2019-01-05T06:32:49.996Z,101580.97
2019-01-05T06:36:33.280Z,101616.61
2019-01-05T06:40:03.604Z,101621.31
2019-01-05T06:43:44.501Z,101628.55
2019-01-05T06:47:11.264Z,101639.20
2019-01-05T06:50:49.559Z,101653.64
2019-01-05T06:54:17.874Z,101593.98
2019-01-05T06:57:50.117Z,101607.97
2019-01-05T07:01:45.409Z,101610.11
2019-01-05T07:05:05.535Z,101602.91
2019-01-05T07:08:29.412Z,101594.90
2019-01-05T07:12:05.033Z,101606.77
2019-01-05T07:15:36.155Z,101610.98
2019-01-05T07:19:07.783Z,101614.41
2019-01-05T07:22:20.463Z,101586.05
2019-01-05T07:26:06.920Z,101599.23
2019-01-05T07:29:22.883Z,101586.93
2019-01-05T07:33:08.651Z,101595.53
2019-01-05T07:37:05.367Z,101604.38
2019-01-05T07:40:35.286Z,101598.46
2019-01-05T07:44:04.703Z,101594.30
2019-01-05T07:47:46.926Z,101581.17
2019-01-05T07:51:22.174Z,101588.40
2019-01-05T07:55:11.047Z,101579.06
2019-01-05T07:58:20.074Z,101562.58
2019-01-05T08:02:09.168Z,101590.20
2019-01-05T08:05:23.093Z,101570.28
2019-01-05T08:08:58.355Z,101563.78
2019-01-05T08:12:39.872Z,101573.02
2019-01-05T08:16:16.782Z,101563.73
2019-01-05T08:19:36.606Z,101569.75
2019-01-05T08:23:02.835Z,101558.69
2019-01-05T08:26:28.114Z,101572.67
2019-01-05T08:30:01.013Z,101564.63
2019-01-05T08:33:27.715Z,101544.73
2019-01-05T08:36:56.857Z,101555.36
2019-01-05T08:40:37.195Z,101543.06
2019-01-05T08:44:31.549Z,101518.05
2019-01-05T08:48:30.830Z,101530.32
2019-01-05T08:51:42.127Z,101532.83
2019-01-05T08:55:05.549Z,101522.66
2019-01-05T08:58:44.932Z,101536.24
2019-01-05T09:02:08.697Z,101506.62
2019-01-05T09:05:33.073Z,101528.65
2019-01-05T09:09:02.908Z,101495.62
2019-01-05T09:12:42.295Z,101495.20
2019-01-05T09:16:19.165Z,101496.03
2019-01-05T09:19:53.191Z,101453.19
2019-01-05T09:23:29.554Z,101446.86
2019-01-05T09:27:26.926Z,101448.55
2019-01-05T09:31:01.544Z,101443.03
2019-01-05T09:34:24.369Z,101420.53
2019-01-05T09:37:58.689Z,101409.50
2019-01-05T09:41:14.085Z,101403.98
2019-01-05T09:44:48.533Z,101405.69
2019-01-05T09:48:37.322Z,101415.89
2019-01-05T09:52:10.246Z,101409.50
2019-01-05T09:55:37.250Z,101398.90
2019-01-05T09:59:17.486Z,101369.59
2019-01-05T10:02:57.016Z,101366.63
2019-01-05T10:06:09.725Z,101359.00
2019-01-05T10:09:59.271Z,101361.14
2019-01-05T10:13:54.674Z,101350.55
2019-01-05T10:17:14.995Z,101362.41
2019-01-05T10:20:46.028Z,101353.50
2019-01-05T10:24:39.080Z,101336.45
2019-01-05T10:28:11.129Z,101348.78
2019-01-05T10:32:03.715Z,101327.03
2019-01-05T10:35:40.717Z,101328.70
2019-01-05T10:39:20.979Z,101324.45
2019-01-05T10:43:00.348Z,101337.58
2019-01-05T10:46:34.815Z,101324.47
2019-01-05T10:49:57.572Z,101318.00
2019-01-05T10:53:31.832Z,101307.47
2019-01-05T10:56:46.572Z,101310.83
2019-01-05T11:00:12.246Z,101304.39
2019-01-05T11:03:42.053Z,101300.84
2019-01-05T11:06:57.401Z,101294.44
2019-01-05T11:10:55.867Z,101287.91
2019-01-05T11:14:24.158Z,101287.75
2019-01-05T11:18:02.961Z,101269.45
2019-01-05T11:21:23.672Z,101273.64
2019-01-05T11:25:01.345Z,101254.81
2019-01-05T11:28:29.088Z,101250.20
2019-01-05T11:31:56.705Z,101247.75
2019-01-05T11:35:29.805Z,101239.45
2019-01-05T11:39:07.005Z,101238.76
2019-01-05T11:42:47.701Z,101232.91
2019-01-05T11:46:16.109Z,101235.00
2019-01-05T11:49:53.037Z,101224.73
2019-01-05T11:53:39.039Z,101233.98
2019-01-05T11:57:14.063Z,101225.52
2019-01-05T12:00:49.767Z,101224.41
2019-01-05T12:04:05.651Z,101227.34
2019-01-05T12:07:47.378Z,101224.44
2019-01-05T12:11:14.679Z,101216.48
2019-01-05T12:14:28.323Z,101221.82
2019-01-05T12:17:58.556Z,101215.42
2019-01-05T12:21:34.913Z,101214.98
2019-01-05T12:24:57.321Z,101209.40
2019-01-05T12:28:40.441Z,101208.41
2019-01-05T12:32:14.050Z,101207.63
2019-01-05T12:35:58.328Z,101208.29
2019-01-05T12:39:31.641Z,101209.17
2019-01-05T12:43:11.188Z,101207.53
2019-01-05T12:46:33.622Z,101207.08
2019-01-05T12:49:59.892Z,101201.48
2019-01-05T12:53:24.762Z,101206.20
2019-01-05T12:57:03.092Z,101209.23
2019-01-05T13:00:34.357Z,101210.11
2019-01-05T13:04:03.143Z,101199.52
2019-01-05T13:07:29.800Z,101193.97
2019-01-05T13:11:01.813Z,101199.97
2019-01-05T13:14:38.764Z,101189.80
2019-01-05T13:17:54.656Z,101187.68
2019-01-05T13:21:34.776Z,101176.22
2019-01-05T13:25:24.298Z,101177.06
2019-01-05T13:28:49.132Z,101176.25
2019-01-05T13:32:32.251Z,101174.03
2019-01-05T13:36:07.822Z,101173.25
2019-01-05T13:39:45.388Z,101176.25
2019-01-05T13:43:15.543Z,101169.48
2019-01-05T13:47:01.166Z,101176.19
2019-01-05T13:50:25.222Z,101167.72
2019-01-05T13:53:46.417Z,101169.00
2019-01-05T13:56:46.644Z,101169.84
2019-01-05T13:59:34.174Z,101167.75
2019-01-05T14:02:35.243Z,101159.71
2019-01-05T14:05:43.019Z,101157.59
2019-01-05T14:08:48.000Z,101157.14
2019-01-05T14:11:45.602Z,101158.41
2019-01-05T14:14:40.194Z,101119.52
2019-01-05T14:17:28.996Z,101161.86
2019-01-05T14:20:23.778Z,101154.19
2019-01-05T14:23:11.716Z,101148.27
2019-01-05T14:26:09.496Z,101152.13
2019-01-05T14:29:04.771Z,101162.31
2019-01-05T14:31:52.527Z,101157.22
2019-01-05T14:34:51.755Z,101168.69
2019-01-05T14:49:16.401Z,101163.81
2019-01-05T14:52:20.261Z,101163.90
2019-01-05T14:55:16.682Z,101157.53
2019-01-05T14:58:23.809Z,101156.62
2019-01-05T15:01:28.033Z,101158.25
2019-01-05T15:04:16.696Z,101154.26
2019-01-05T15:07:04.306Z,101153.88
2019-01-05T15:09:52.997Z,101150.89
2019-01-05T15:12:44.627Z,101152.56
2019-01-05T15:15:30.688Z,101156.88
2019-01-05T15:18:28.600Z,101163.77
2019-01-05T15:21:35.572Z,101159.59
2019-01-05T15:24:42.752Z,101164.13
2019-01-05T15:27:49.613Z,101163.35
2019-01-05T15:30:46.868Z,101159.04
2019-01-05T15:33:35.331Z,101159.00
2019-01-05T15:36:22.888Z,101162.89
2019-01-05T15:39:24.066Z,101154.16
2019-01-05T15:42:12.784Z,101156.09
2019-01-05T15:45:07.849Z,101159.00
2019-01-05T15:47:58.027Z,101152.24
2019-01-05T15:50:55.727Z,101151.16
2019-01-05T15:53:47.211Z,101154.16
2019-01-05T15:56:35.945Z,101149.52
2019-01-05T15:59:38.313Z,101150.77
2019-01-05T16:02:25.710Z,101145.27
2019-01-05T16:05:17.230Z,101142.33
2019-01-05T16:08:21.033Z,101149.18
2019-01-05T16:11:21.865Z,101145.78
2019-01-05T16:14:09.969Z,101147.05
2019-01-05T16:17:01.684Z,101145.78
2019-01-05T16:19:56.186Z,101147.91
2019-01-05T16:22:51.067Z,101148.70
2019-01-05T16:25:38.318Z,101146.27
2019-01-05T16:28:27.136Z,101147.51
2019-01-05T16:31:21.728Z,101144.16
2019-01-05T16:34:17.767Z,101150.11
2019-01-05T16:37:05.109Z,101153.05
2019-01-05T16:40:12.626Z,101147.96
2019-01-05T16:43:06.449Z,101144.14
2019-01-05T16:45:58.295Z,101107.33
2019-01-05T16:48:45.445Z,101145.39
2019-01-05T16:51:33.058Z,101135.56
2019-01-05T16:54:20.382Z,101131.80
2019-01-05T16:57:08.013Z,101131.77
2019-01-05T16:59:56.666Z,101128.77
2019-01-05T17:03:00.638Z,101134.23
2019-01-05T17:05:53.647Z,101128.86
2019-01-05T17:09:00.393Z,101132.36
2019-01-05T17:12:03.923Z,101128.16
2019-01-05T17:14:51.450Z,101128.25
2019-01-05T17:17:30.954Z,101127.10
2019-01-05T17:20:14.430Z,101128.83
2019-01-05T17:23:02.198Z,101132.65
2019-01-05T17:25:54.476Z,101136.53
2019-01-05T17:28:49.936Z,101127.67
2019-01-05T17:31:44.873Z,101125.99
2019-01-05T17:34:36.204Z,101124.74
2019-01-05T17:37:25.214Z,101128.56
2019-01-05T17:40:22.717Z,101117.12
2019-01-05T17:43:21.845Z,101117.14
2019-01-05T17:46:19.947Z,101119.69
2019-01-05T17:49:14.864Z,101112.06
2019-01-05T17:52:15.810Z,101114.98
2019-01-05T17:55:04.685Z,101108.22
2019-01-05T17:57:52.252Z,101100.19
2019-01-05T18:00:40.778Z,101096.74
2019-01-05T18:03:38.121Z,101097.59
2019-01-05T18:06:39.343Z,101095.41
2019-01-05T18:09:31.282Z,101094.17
2019-01-05T18:12:19.122Z,101091.19
2019-01-05T18:15:20.042Z,101087.77
2019-01-05T18:18:23.969Z,101074.66
2019-01-05T18:21:18.622Z,101074.13
2019-01-05T18:24:02.594Z,101074.98
2019-01-05T18:26:57.773Z,101071.19
2019-01-05T18:29:52.749Z,101069.52
2019-01-05T18:32:44.251Z,101074.70
2019-01-05T18:35:51.602Z,101071.76
2019-01-05T18:38:39.117Z,101067.56
2019-01-05T18:41:29.007Z,101056.17
2019-01-05T18:44:29.909Z,101058.30
2019-01-05T18:47:21.233Z,101046.44
2019-01-05T18:50:13.706Z,101046.86
2019-01-05T18:53:08.639Z,101050.67
2019-01-05T18:56:00.400Z,101043.89
2019-01-05T18:58:48.530Z,101047.70
2019-01-05T19:01:38.977Z,101046.87
2019-01-05T19:04:26.684Z,101048.15
2019-01-05T19:07:24.391Z,101044.79
2019-01-05T19:10:13.446Z,101048.59
2019-01-05T19:13:00.756Z,101052.39
2019-01-05T19:16:01.504Z,101049.83
2019-01-05T19:19:02.130Z,101047.31
2019-01-05T19:22:03.125Z,101046.47
2019-01-05T19:24:51.853Z,101046.44
2019-01-05T19:27:43.719Z,101044.77
2019-01-05T19:30:32.394Z,101040.55
2019-01-05T19:33:21.219Z,101037.14
2019-01-05T19:36:15.914Z,101032.91
2019-01-05T19:39:04.713Z,101034.20
2019-01-05T19:42:08.609Z,101035.02
2019-01-05T19:45:09.297Z,101030.38
2019-01-05T19:47:56.546Z,101032.92
2019-01-05T19:50:55.406Z,101031.23
2019-01-05T19:53:44.281Z,101036.30
2019-01-05T19:56:31.865Z,101026.13
2019-01-05T19:59:19.429Z,101029.11
2019-01-05T20:02:08.141Z,101027.83
2019-01-05T20:05:09.879Z,101031.20
2019-01-05T20:07:58.554Z,101030.79
2019-01-05T20:10:53.319Z,101024.03
2019-01-05T20:13:42.025Z,101021.91
2019-01-05T20:16:29.604Z,101012.58
2019-01-05T20:19:29.836Z,101012.59
2019-01-05T20:22:24.417Z,101011.31
2019-01-05T20:25:19.253Z,101000.75
2019-01-05T20:28:10.952Z,100997.78
2019-01-05T20:31:06.043Z,100990.13
2019-01-05T20:33:54.731Z,100987.61
2019-01-05T20:36:52.787Z,100983.34
2019-01-05T20:39:37.545Z,100975.33
2019-01-05T20:42:26.230Z,100972.77
2019-01-05T20:45:14.956Z,100968.95
2019-01-05T20:48:02.425Z,100965.55
2019-01-05T20:50:50.917Z,100962.58
2019-01-05T20:53:42.984Z,100968.48
2019-01-05T20:56:33.629Z,100953.71
2019-01-05T20:59:41.665Z,100953.30
2019-01-05T21:02:37.825Z,100950.76
2019-01-05T21:05:29.835Z,100946.51
2019-01-05T21:08:18.697Z,100944.39
2019-01-05T21:11:13.508Z,100941.44
2019-01-05T21:14:08.277Z,100933.78
2019-01-05T21:16:56.957Z,100930.00
2019-01-05T21:19:52.859Z,100922.33
2019-01-05T21:22:40.697Z,100909.98
2019-01-05T21:25:29.810Z,100905.71
2019-01-05T21:28:37.006Z,100904.04
2019-01-05T21:31:24.674Z,100898.91
2019-01-05T21:34:13.235Z,100890.06
2019-01-05T21:37:05.934Z,100891.70
2019-01-05T21:40:06.866Z,100885.38
2019-01-05T21:43:07.471Z,100882.92
2019-01-05T21:45:55.073Z,100888.91
2019-01-05T21:48:42.365Z,100888.49
2019-01-05T21:51:40.867Z,100882.98
2019-01-05T21:54:37.198Z,100879.17
2019-01-05T21:57:25.033Z,100877.45
2019-01-05T22:00:12.582Z,100869.44
2019-01-05T22:03:11.931Z,100871.55
2019-01-05T22:06:03.486Z,100871.98
2019-01-05T22:08:52.493Z,100859.26
2019-01-05T22:11:44.140Z,100860.07
2019-01-05T22:14:40.740Z,100847.83
2019-01-05T22:17:28.456Z,100846.20
2019-01-05T22:20:17.798Z,100841.61
2019-01-05T22:23:09.063Z,100839.91
2019-01-05T22:26:01.033Z,100838.64
2019-01-05T22:28:49.760Z,100839.06
2019-01-05T22:31:37.423Z,100837.36
2019-01-05T22:34:34.951Z,100832.75
2019-01-05T22:37:22.218Z,100831.09
2019-01-05T22:40:22.881Z,100826.92
2019-01-05T22:43:23.651Z,100828.62
2019-01-05T22:46:12.320Z,100826.53
2019-01-05T22:49:01.127Z,100826.96
2019-01-05T22:51:51.977Z,100821.91
2019-01-05T22:54:39.346Z,100821.07
2019-01-05T22:57:34.054Z,100812.19
2019-01-05T23:00:22.730Z,100812.19
2019-01-05T23:03:10.156Z,100802.45
2019-01-05T23:06:01.708Z,100804.16
2019-01-05T23:09:05.741Z,100799.55
2019-01-05T23:12:03.957Z,100791.95
2019-01-05T23:14:51.416Z,100798.73
2019-01-05T23:17:39.399Z,100792.84
2019-01-05T23:20:26.517Z,100792.01
2019-01-05T23:23:30.346Z,100794.54
2019-01-05T23:26:21.565Z,100794.97
2019-01-05T23:29:15.024Z,100792.44
2019-01-05T23:32:01.698Z,100796.25
2019-01-05T23:35:09.385Z,100793.72
2019-01-05T23:37:56.775Z,100786.53
2019-01-05T23:40:44.653Z,100787.39
2019-01-05T23:43:45.738Z,100785.28
2019-01-05T23:46:34.458Z,100791.62
2019-01-05T23:49:23.171Z,100783.17
2019-01-05T23:52:30.253Z,100784.45
2019-01-05T23:55:17.939Z,100786.13
2019-01-05T23:58:12.397Z,100780.63
